Time;durP1;ratioP1;P1;durP2;ratioP2;P2;SDS_P1;SDS_P2;PMS_P1;PMS_P2;Temp;Humidity;BMP_temperature;BMP_pressure;BME280_temperature;BME280_humidity;BME280_pressure;Samples;Min_cycle;Max_cycle;Signal;HPM_P1;HPM_P2
2024/01/07 00:01:54;;;;;;;0.80;0.80;;;;;;;0.85;100.00;99065.66;5077126;28;20051;-59
2024/01/07 00:04:21;;;;;;;0.80;0.80;;;;;;;0.75;100.00;99059.00;5073034;28;20557;-59
2024/01/07 00:06:49;;;;;;;0.80;0.80;;;;;;;0.79;100.00;99055.00;5070734;28;20122;-59
2024/01/07 00:09:16;;;;;;;0.93;0.93;;;;;;;0.81;100.00;99064.38;5076425;28;20511;-60
2024/01/07 00:11:45;;;;;;;0.80;0.80;;;;;;;0.94;100.00;99058.44;5075139;28;20101;-59
2024/01/07 00:14:12;;;;;;;0.60;0.60;;;;;;;0.94;100.00;99065.53;5073074;28;20087;-59
2024/01/07 00:16:40;;;;;;;0.90;0.90;;;;;;;0.93;100.00;99067.38;5071868;28;20097;-59
2024/01/07 00:19:07;;;;;;;0.80;0.80;;;;;;;0.89;100.00;99071.38;5075618;28;20040;-59
2024/01/07 00:21:34;;;;;;;0.70;0.70;;;;;;;0.90;100.00;99075.66;5072536;28;20060;-59
2024/01/07 00:24:01;;;;;;;0.80;0.80;;;;;;;0.89;100.00;99075.84;5075121;28;20248;-59
2024/01/07 00:26:29;;;;;;;0.88;0.88;;;;;;;0.94;100.00;99076.91;5072977;28;20059;-59
2024/01/07 00:28:57;;;;;;;0.75;0.75;;;;;;;0.96;100.00;99082.81;5045629;28;20087;-59
2024/01/07 00:31:24;;;;;;;0.80;0.80;;;;;;;1.02;100.00;99087.38;5078638;28;20071;-59
2024/01/07 00:33:54;;;;;;;0.77;0.77;;;;;;;0.94;100.00;99076.91;5076610;28;20362;-59
2024/01/07 00:36:21;;;;;;;0.63;0.63;;;;;;;0.96;100.00;99076.75;5069634;28;20283;-59
2024/01/07 00:38:48;;;;;;;0.80;0.80;;;;;;;1.00;100.00;99075.34;5060059;28;20048;-59
2024/01/07 00:41:15;;;;;;;0.68;0.68;;;;;;;0.83;100.00;99078.22;5071810;28;20180;-59
2024/01/07 00:43:42;;;;;;;0.80;0.80;;;;;;;0.87;100.00;99081.28;5078720;28;20173;-59
2024/01/07 00:46:10;;;;;;;0.90;0.90;;;;;;;0.88;100.00;99079.50;5080347;28;20611;-59
2024/01/07 00:48:38;;;;;;;0.80;0.80;;;;;;;1.00;100.00;99088.53;5079129;28;20070;-59
2024/01/07 00:51:05;;;;;;;0.65;0.65;;;;;;;0.98;100.00;99091.38;5081933;28;20044;-59
2024/01/07 00:53:32;;;;;;;0.55;0.55;;;;;;;0.98;100.00;99091.38;5079371;28;20062;-61
2024/01/07 00:56:00;;;;;;;0.60;0.60;;;;;;;1.11;100.00;99095.19;5080022;28;20134;-59
2024/01/07 00:58:27;;;;;;;0.60;0.60;;;;;;;0.97;100.00;99099.47;5081206;28;20104;-60
2024/01/07 01:00:54;;;;;;;0.70;0.70;;;;;;;0.97;100.00;99100.28;5081928;28;20081;-59
2024/01/07 01:03:23;;;;;;;0.70;0.70;;;;;;;0.96;100.00;99106.59;5079024;28;20052;-59
2024/01/07 01:05:50;;;;;;;0.60;0.60;;;;;;;1.02;100.00;99103.22;5061175;28;20044;-62
2024/01/07 01:08:19;;;;;;;0.60;0.60;;;;;;;0.97;100.00;99094.19;5078343;28;20047;-59
2024/01/07 01:10:46;;;;;;;0.63;0.63;;;;;;;0.95;100.00;99098.84;5075803;28;20113;-59
2024/01/07 01:13:14;;;;;;;0.63;0.63;;;;;;;0.84;100.00;99102.75;5073786;28;20130;-59
2024/01/07 01:15:42;;;;;;;0.63;0.63;;;;;;;1.00;100.00;99099.09;5081676;28;20047;-59
2024/01/07 01:18:09;;;;;;;0.90;0.90;;;;;;;0.90;100.00;99104.69;5078845;28;20051;-59
2024/01/07 01:20:37;;;;;;;0.60;0.60;;;;;;;1.04;100.00;99103.03;5080372;28;20123;-59
2024/01/07 01:23:10;;;;;;;0.70;0.70;;;;;;;0.93;100.00;99114.88;5057027;28;20143;-59
2024/01/07 01:25:39;;;;;;;0.70;0.70;;;;;;;0.95;100.00;99110.25;5081388;28;20048;-59
2024/01/07 01:28:09;;;;;;;0.70;0.70;;;;;;;0.95;100.00;99110.25;5078222;28;20449;-59
2024/01/07 01:30:36;;;;;;;0.70;0.70;;;;;;;0.95;100.00;99112.03;5075661;28;20141;-59
2024/01/07 01:33:04;;;;;;;0.47;0.47;;;;;;;0.95;100.00;99115.50;5079412;28;20120;-61
2024/01/07 01:35:31;;;;;;;0.70;0.70;;;;;;;0.92;100.00;99113.22;5080570;28;20140;-61
2024/01/07 01:38:00;;;;;;;0.80;0.80;;;;;;;1.02;100.00;99120.84;5061233;28;20046;-61
2024/01/07 01:40:27;;;;;;;0.60;0.60;;;;;;;1.04;100.00;99116.22;5077451;28;20050;-59
2024/01/07 01:42:54;;;;;;;0.75;0.75;;;;;;;1.08;100.00;99118.31;5058002;28;20076;-61
2024/01/07 01:45:21;;;;;;;0.73;0.73;;;;;;;0.90;100.00;99117.03;5069418;28;20059;-60
2024/01/07 01:47:48;;;;;;;0.70;0.70;;;;;;;0.94;100.00;99123.59;5079680;28;20046;-60
2024/01/07 01:50:15;;;;;;;0.60;0.60;;;;;;;0.98;100.00;99132.81;5068229;28;20040;-61
2024/01/07 01:52:44;;;;;;;0.63;0.63;;;;;;;1.06;100.00;99136.16;5077883;28;20036;-60
2024/01/07 01:55:12;;;;;;;0.80;0.80;;;;;;;1.08;100.00;99135.97;5079893;28;20252;-60
2024/01/07 01:57:39;;;;;;;0.70;0.70;;;;;;;1.02;100.00;99136.69;5074493;28;20044;-60
2024/01/07 02:00:08;;;;;;;0.80;0.80;;;;;;;1.04;100.00;99135.50;5077297;28;20048;-60
2024/01/07 02:02:35;;;;;;;0.65;0.65;;;;;;;0.98;100.00;99135.44;5079700;28;20080;-60
2024/01/07 02:05:03;;;;;;;0.70;0.70;;;;;;;0.87;100.00;99134.06;5057846;28;20048;-60
2024/01/07 02:07:30;;;;;;;0.70;0.70;;;;;;;0.98;100.00;99133.63;5079896;28;20091;-60
2024/01/07 02:09:58;;;;;;;0.70;0.70;;;;;;;0.97;100.00;99134.59;5039300;28;20091;-60
2024/01/07 02:12:27;;;;;;;0.90;0.90;;;;;;;0.96;100.00;99132.97;5032752;28;20079;-60
2024/01/07 02:14:54;;;;;;;0.63;0.63;;;;;;;0.99;100.00;99135.25;5039246;28;20069;-61
2024/01/07 02:17:21;;;;;;;0.70;0.70;;;;;;;1.10;100.00;99128.69;5028309;28;20110;-60
2024/01/07 02:19:48;;;;;;;0.70;0.70;;;;;;;1.12;100.00;99133.78;5037482;28;20131;-60
2024/01/07 02:22:15;;;;;;;0.60;0.60;;;;;;;1.10;100.00;99135.78;5030431;28;20053;-60
2024/01/07 02:24:44;;;;;;;0.70;0.70;;;;;;;1.07;100.00;99135.16;5036857;28;20037;-60
2024/01/07 02:27:12;;;;;;;0.60;0.60;;;;;;;1.01;100.00;99138.53;5029033;28;20500;-60
2024/01/07 02:29:39;;;;;;;0.60;0.60;;;;;;;1.02;100.00;99140.19;5036422;28;20339;-60
2024/01/07 02:32:07;;;;;;;0.73;0.73;;;;;;;1.11;100.00;99143.53;5033531;28;20045;-60
2024/01/07 02:34:34;;;;;;;0.80;0.80;;;;;;;1.04;100.00;99140.78;5037602;28;20132;-60
2024/01/07 02:37:01;;;;;;;0.70;0.70;;;;;;;1.10;100.00;99139.25;5039141;28;20435;-60
2024/01/07 02:39:28;;;;;;;0.77;0.77;;;;;;;1.05;100.00;99142.44;5034747;28;20535;-60
2024/01/07 02:41:56;;;;;;;0.70;0.70;;;;;;;1.00;100.00;99142.19;5035367;28;20521;-60
2024/01/07 02:44:23;;;;;;;0.70;0.70;;;;;;;0.99;100.00;99143.16;5030957;28;20049;-60
2024/01/07 02:46:50;;;;;;;0.60;0.60;;;;;;;1.11;100.00;99143.53;5028313;28;20148;-60
2024/01/07 02:49:17;;;;;;;0.50;0.50;;;;;;;1.14;100.00;99143.16;5034397;28;20037;-60
2024/01/07 02:51:49;;;;;;;0.70;0.70;;;;;;;1.17;100.00;99132.22;5038889;28;20041;-60
2024/01/07 02:54:17;;;;;;;0.70;0.70;;;;;;;1.25;100.00;99141.88;5036098;28;20236;-60
2024/01/07 02:56:44;;;;;;;0.68;0.68;;;;;;;1.14;100.00;99137.06;5035701;28;20887;-60
2024/01/07 02:59:13;;;;;;;0.70;0.70;;;;;;;1.17;100.00;99131.41;5034778;28;20067;-60
2024/01/07 03:01:41;;;;;;;0.80;0.80;;;;;;;1.19;100.00;99130.22;5038451;28;20049;-60
2024/01/07 03:04:10;;;;;;;0.60;0.60;;;;;;;1.05;100.00;99139.81;5038456;28;20048;-60
2024/01/07 03:06:37;;;;;;;0.68;0.68;;;;;;;1.08;100.00;99143.91;5037488;28;20109;-60
2024/01/07 03:09:04;;;;;;;0.60;0.60;;;;;;;1.18;100.00;99148.91;5040447;28;20063;-60
2024/01/07 03:11:31;;;;;;;0.60;0.60;;;;;;;1.12;100.00;99149.63;5056113;28;20076;-60
2024/01/07 03:13:58;;;;;;;0.80;0.80;;;;;;;1.16;100.00;99153.53;5055410;28;20044;-60
2024/01/07 03:16:27;;;;;;;0.80;0.80;;;;;;;0.98;100.00;99157.38;5057724;28;20127;-61
2024/01/07 03:18:55;;;;;;;0.60;0.60;;;;;;;1.07;100.00;99158.06;5057906;28;20044;-60
2024/01/07 03:21:23;;;;;;;0.80;0.80;;;;;;;1.03;100.00;99162.91;5060233;28;20542;-60
2024/01/07 03:23:51;;;;;;;0.85;0.85;;;;;;;1.03;100.00;99165.56;5049162;28;20312;-60
2024/01/07 03:26:18;;;;;;;0.70;0.70;;;;;;;1.02;100.00;99171.00;5055131;28;20048;-61
2024/01/07 03:28:45;;;;;;;0.60;0.60;;;;;;;1.10;100.00;99162.19;5052387;28;20410;-60
2024/01/07 03:31:14;;;;;;;0.60;0.60;;;;;;;0.99;100.00;99164.28;5054415;28;20052;-60
2024/01/07 03:33:43;;;;;;;0.70;0.70;;;;;;;0.80;100.00;99162.16;5049218;28;20351;-60
2024/01/07 03:36:11;;;;;;;0.80;0.80;;;;;;;0.88;100.00;99164.75;5055922;28;20045;-60
2024/01/07 03:38:38;;;;;;;0.80;0.80;;;;;;;1.04;100.00;99164.53;5047786;28;20052;-60
2024/01/07 03:41:05;;;;;;;0.80;0.80;;;;;;;1.14;100.00;99160.81;5053206;28;20124;-61
2024/01/07 03:43:32;;;;;;;0.70;0.70;;;;;;;1.06;100.00;99162.53;5054042;28;20207;-60
2024/01/07 03:45:59;;;;;;;0.63;0.63;;;;;;;1.03;100.00;99168.19;5055971;28;20048;-60
2024/01/07 03:48:26;;;;;;;0.80;0.80;;;;;;;0.99;100.00;99166.91;5050218;28;20564;-60
2024/01/07 03:50:54;;;;;;;0.80;0.80;;;;;;;0.91;100.00;99159.09;5051728;28;20078;-61
2024/01/07 03:53:23;;;;;;;0.75;0.75;;;;;;;1.06;100.00;99162.53;5053601;28;20052;-60
2024/01/07 03:55:50;;;;;;;0.70;0.70;;;;;;;1.00;100.00;99173.00;5043365;28;20255;-61
2024/01/07 03:58:17;;;;;;;0.70;0.70;;;;;;;1.11;100.00;99163.84;5056117;28;20051;-61
2024/01/07 04:00:44;;;;;;;0.73;0.73;;;;;;;1.13;100.00;99161.84;5057691;28;20045;-61
2024/01/07 04:03:11;;;;;;;0.70;0.70;;;;;;;1.03;100.00;99157.63;5056306;28;20045;-59
2024/01/07 04:05:38;;;;;;;0.82;0.82;;;;;;;1.07;100.00;99161.56;5052236;28;20044;-60
2024/01/07 04:08:09;;;;;;;0.65;0.65;;;;;;;1.10;100.00;99167.44;5049172;28;20135;-59
2024/01/07 04:10:36;;;;;;;0.57;0.57;;;;;;;0.98;100.00;99161.84;5075719;28;20558;-59
2024/01/07 04:13:03;;;;;;;0.65;0.65;;;;;;;0.91;100.00;99169.66;5078914;28;20616;-59
2024/01/07 04:15:30;;;;;;;0.70;0.70;;;;;;;0.84;100.00;99174.81;5081115;28;20106;-59
2024/01/07 04:17:57;;;;;;;0.80;0.80;;;;;;;0.86;100.00;99182.56;5084655;28;20052;-59
2024/01/07 04:20:24;;;;;;;0.80;0.80;;;;;;;1.00;100.00;99184.41;5078119;28;20567;-59
2024/01/07 04:22:51;;;;;;;0.80;0.80;;;;;;;0.97;100.00;99184.75;5081716;28;20162;-59
2024/01/07 04:25:20;;;;;;;0.60;0.60;;;;;;;0.92;100.00;99188.94;5076872;28;20125;-60
2024/01/07 04:27:47;;;;;;;0.65;0.65;;;;;;;0.97;100.00;99189.22;5082380;28;20076;-59
2024/01/07 04:30:14;;;;;;;0.60;0.60;;;;;;;1.12;100.00;99197.13;5080081;28;20059;-59
2024/01/07 04:32:41;;;;;;;0.70;0.70;;;;;;;1.10;100.00;99193.84;5055872;28;20040;-60
2024/01/07 04:35:08;;;;;;;0.70;0.70;;;;;;;1.13;100.00;99193.50;5078913;28;20045;-59
2024/01/07 04:37:36;;;;;;;0.70;0.70;;;;;;;1.15;100.00;99202.88;5081354;28;20149;-60
2024/01/07 04:40:03;;;;;;;0.70;0.70;;;;;;;1.04;100.00;99204.13;5079544;28;20049;-60
2024/01/07 04:42:31;;;;;;;0.80;0.80;;;;;;;1.07;100.00;99195.03;5071832;28;20066;-59
2024/01/07 04:44:58;;;;;;;0.70;0.70;;;;;;;0.96;100.00;99198.94;5079568;28;20044;-59
2024/01/07 04:47:29;;;;;;;0.70;0.70;;;;;;;1.10;100.00;99205.25;5080271;28;20057;-59
2024/01/07 04:49:56;;;;;;;0.68;0.68;;;;;;;1.06;100.00;99210.06;5074119;28;20039;-59
2024/01/07 04:52:23;;;;;;;0.80;0.80;;;;;;;1.03;100.00;99213.06;5063072;28;20138;-59
2024/01/07 04:54:51;;;;;;;0.65;0.65;;;;;;;1.04;100.00;99217.34;5081359;28;20072;-59
2024/01/07 04:57:18;;;;;;;0.68;0.68;;;;;;;0.86;100.00;99215.03;5083170;28;20040;-59
2024/01/07 04:59:46;;;;;;;0.52;0.52;;;;;;;0.88;100.00;99219.34;5081914;28;20097;-59
2024/01/07 05:02:13;;;;;;;0.60;0.60;;;;;;;1.02;100.00;99229.06;5081104;28;20050;-59
2024/01/07 05:04:41;;;;;;;0.70;0.70;;;;;;;0.98;100.00;99230.47;5081452;28;20052;-59
2024/01/07 05:07:08;;;;;;;0.60;0.60;;;;;;;0.94;100.00;99226.53;5080430;28;20170;-59
2024/01/07 05:09:35;;;;;;;0.70;0.70;;;;;;;1.05;100.00;99226.91;5077647;28;20040;-59
2024/01/07 05:12:02;;;;;;;0.60;0.60;;;;;;;0.94;100.00;99232.63;5082269;28;20047;-61
2024/01/07 05:14:29;;;;;;;0.80;0.80;;;;;;;0.96;100.00;99235.91;5075814;28;20063;-60
2024/01/07 05:16:57;;;;;;;0.52;0.52;;;;;;;0.97;100.00;99239.34;5083343;28;20119;-60
2024/01/07 05:19:24;;;;;;;0.60;0.60;;;;;;;1.02;100.00;99229.06;5078287;28;20054;-61
2024/01/07 05:21:51;;;;;;;0.80;0.80;;;;;;;0.99;100.00;99240.81;5077560;28;20044;-60
2024/01/07 05:24:18;;;;;;;0.70;0.70;;;;;;;0.83;100.00;99241.00;5073334;28;20054;-61
2024/01/07 05:26:45;;;;;;;0.80;0.80;;;;;;;0.84;100.00;99242.63;5075533;28;20122;-61
2024/01/07 05:29:11;;;;;;;0.57;0.57;;;;;;;0.92;100.00;99245.16;5077547;28;20263;-61
2024/01/07 05:31:38;;;;;;;0.77;0.77;;;;;;;0.95;100.00;99247.47;5080651;28;20564;-61
2024/01/07 05:34:07;;;;;;;0.55;0.55;;;;;;;0.87;100.00;99258.09;5054574;28;20179;-61
2024/01/07 05:36:34;;;;;;;0.90;0.90;;;;;;;0.89;100.00;99250.81;5078444;28;21065;-60
2024/01/07 05:39:01;;;;;;;0.80;0.80;;;;;;;0.82;100.00;99250.72;5078486;28;20487;-61
2024/01/07 05:41:28;;;;;;;0.60;0.60;;;;;;;0.84;100.00;99255.81;5079942;28;20784;-60
2024/01/07 05:43:55;;;;;;;0.75;0.75;;;;;;;0.92;100.00;99254.91;5080972;28;20047;-60
2024/01/07 05:46:22;;;;;;;0.70;0.70;;;;;;;0.86;100.00;99256.44;5079459;28;20135;-60
2024/01/07 05:48:49;;;;;;;0.60;0.60;;;;;;;0.81;100.00;99256.16;5078338;28;20036;-60
2024/01/07 05:51:18;;;;;;;0.75;0.75;;;;;;;0.82;100.00;99260.44;5080431;28;20496;-61
2024/01/07 05:53:45;;;;;;;0.60;0.60;;;;;;;0.86;100.00;99259.91;5078741;28;20132;-61
2024/01/07 05:56:12;;;;;;;0.80;0.80;;;;;;;0.88;100.00;99270.28;5080144;28;20040;-60
2024/01/07 05:58:42;;;;;;;0.73;0.73;;;;;;;0.93;100.00;99270.56;5054969;28;20143;-60
2024/01/07 06:01:09;;;;;;;0.80;0.80;;;;;;;0.81;100.00;99267.53;5079582;28;20060;-61
2024/01/07 06:03:36;;;;;;;0.70;0.70;;;;;;;0.82;100.00;99276.28;5080817;28;20079;-61
2024/01/07 06:06:03;;;;;;;0.88;0.88;;;;;;;0.90;100.00;99272.75;5082506;28;20047;-61
2024/01/07 06:08:31;;;;;;;0.60;0.60;;;;;;;0.81;100.00;99275.47;5080438;28;20048;-61
2024/01/07 06:10:58;;;;;;;0.75;0.75;;;;;;;0.80;100.00;99273.81;5057030;28;20075;-61
2024/01/07 06:13:25;;;;;;;0.70;0.70;;;;;;;0.76;100.00;99282.28;5076225;28;20044;-61
2024/01/07 06:15:53;;;;;;;0.60;0.60;;;;;;;0.76;100.00;99282.28;5081258;28;20047;-60
2024/01/07 06:18:20;;;;;;;0.80;0.80;;;;;;;0.61;100.00;99283.03;5081847;28;20123;-60
2024/01/07 06:20:47;;;;;;;0.68;0.68;;;;;;;0.77;100.00;99284.72;5079003;28;20063;-61
2024/01/07 06:23:15;;;;;;;0.68;0.68;;;;;;;0.80;100.00;99289.66;5078676;28;20145;-61
2024/01/07 06:25:43;;;;;;;0.70;0.70;;;;;;;0.74;100.00;99294.81;5077850;28;20050;-60
2024/01/07 06:28:11;;;;;;;0.80;0.80;;;;;;;0.80;100.00;99300.22;5077801;28;20430;-61
2024/01/07 06:30:38;;;;;;;0.52;0.52;;;;;;;0.64;100.00;99301.16;5075784;28;20154;-61
2024/01/07 06:33:06;;;;;;;0.70;0.70;;;;;;;0.83;100.00;99297.22;5078619;28;20733;-61
2024/01/07 06:35:33;;;;;;;0.70;0.70;;;;;;;0.89;100.00;99303.59;5037155;28;20122;-61
2024/01/07 06:38:00;;;;;;;0.70;0.70;;;;;;;0.75;100.00;99307.00;5070604;28;20356;-59
2024/01/07 06:40:27;;;;;;;0.70;0.70;;;;;;;0.79;100.00;99310.94;5070268;28;20037;-59
2024/01/07 06:42:56;;;;;;;0.80;0.80;;;;;;;0.80;100.00;99315.19;5077220;28;20039;-59
2024/01/07 06:45:23;;;;;;;0.50;0.50;;;;;;;0.75;100.00;99321.03;5079234;28;20047;-59
2024/01/07 06:47:50;;;;;;;0.80;0.80;;;;;;;0.67;100.00;99320.25;5077458;28;20131;-61
2024/01/07 06:50:19;;;;;;;0.70;0.70;;;;;;;0.76;100.00;99320.03;5056392;28;20391;-61
2024/01/07 06:52:46;;;;;;;0.88;0.88;;;;;;;0.83;100.00;99328.06;5058064;28;20472;-61
2024/01/07 06:55:13;;;;;;;0.70;0.70;;;;;;;0.79;100.00;99330.22;5081115;28;20130;-61
2024/01/07 06:57:40;;;;;;;0.70;0.70;;;;;;;0.74;100.00;99327.28;5078429;28;20344;-59
2024/01/07 07:00:10;;;;;;;0.80;0.80;;;;;;;0.77;100.00;99329.56;5060389;28;20048;-61
2024/01/07 07:02:37;;;;;;;0.65;0.65;;;;;;;0.81;100.00;99340.59;5079527;28;20047;-59
2024/01/07 07:05:04;;;;;;;0.70;0.70;;;;;;;0.77;100.00;99344.59;5078491;28;20127;-61
2024/01/07 07:07:31;;;;;;;0.60;0.60;;;;;;;0.69;100.00;99342.00;5078608;28;20516;-61
2024/01/07 07:09:58;;;;;;;0.57;0.57;;;;;;;0.82;100.00;99350.16;5074930;28;20048;-61
2024/01/07 07:12:25;;;;;;;0.70;0.70;;;;;;;0.82;100.00;99344.88;5080013;28;20637;-60
2024/01/07 07:14:52;;;;;;;0.60;0.60;;;;;;;0.88;100.00;99349.47;5057491;28;20059;-60
2024/01/07 07:17:20;;;;;;;0.73;0.73;;;;;;;0.67;100.00;99359.84;5073888;28;20048;-61
2024/01/07 07:19:47;;;;;;;0.73;0.73;;;;;;;0.64;100.00;99353.91;5078342;28;20732;-60
2024/01/07 07:22:15;;;;;;;0.80;0.80;;;;;;;0.63;100.00;99359.38;5080325;28;20497;-61
2024/01/07 07:24:42;;;;;;;0.70;0.70;;;;;;;0.69;100.00;99360.47;5072211;28;20048;-60
2024/01/07 07:27:09;;;;;;;0.77;0.77;;;;;;;0.74;100.00;99368.69;5059825;28;20046;-60
2024/01/07 07:29:36;;;;;;;0.82;0.82;;;;;;;0.89;100.00;99372.19;5075765;28;20135;-61
2024/01/07 07:32:03;;;;;;;0.70;0.70;;;;;;;1.05;100.00;99380.00;5076342;28;20530;-60
2024/01/07 07:34:32;;;;;;;0.70;0.70;;;;;;;0.85;100.00;99382.31;5075635;28;20155;-61
2024/01/07 07:36:59;;;;;;;0.60;0.60;;;;;;;0.81;100.00;99381.00;5074410;28;20056;-60
2024/01/07 07:39:27;;;;;;;0.70;0.70;;;;;;;0.81;100.00;99377.56;5077925;28;20584;-60
2024/01/07 07:41:54;;;;;;;0.70;0.70;;;;;;;0.66;100.00;99395.94;5079335;28;20032;-61
2024/01/07 07:44:20;;;;;;;0.70;0.70;;;;;;;0.78;100.00;99394.56;5078500;28;20137;-61
2024/01/07 07:46:47;;;;;;;0.63;0.63;;;;;;;0.86;100.00;99398.94;5077965;28;21166;-60
2024/01/07 07:49:15;;;;;;;0.70;0.70;;;;;;;0.71;100.00;99395.44;5061017;28;20154;-60
2024/01/07 07:51:44;;;;;;;0.70;0.70;;;;;;;0.83;100.00;99399.31;5073950;28;20052;-60
2024/01/07 07:54:11;;;;;;;0.80;0.80;;;;;;;0.85;100.00;99402.59;5070644;28;20048;-60
2024/01/07 07:56:39;;;;;;;0.80;0.80;;;;;;;0.81;100.00;99401.28;5069490;28;20036;-60
2024/01/07 07:59:08;;;;;;;0.70;0.70;;;;;;;0.89;100.00;99409.16;5076996;28;20516;-61
2024/01/07 08:01:36;;;;;;;0.70;0.70;;;;;;;0.77;100.00;99421.91;5075660;28;20107;-61
2024/01/07 08:04:05;;;;;;;0.70;0.70;;;;;;;0.76;100.00;99422.09;5078757;28;20113;-61
2024/01/07 08:06:32;;;;;;;0.77;0.77;;;;;;;0.76;100.00;99424.75;5075535;28;20647;-61
2024/01/07 08:09:00;;;;;;;0.68;0.68;;;;;;;0.65;100.00;99423.34;5074860;28;20417;-61
2024/01/07 08:11:29;;;;;;;0.70;0.70;;;;;;;0.70;100.00;99430.69;5076729;28;20074;-61
2024/01/07 08:13:57;;;;;;;0.50;0.50;;;;;;;0.73;100.00;99425.91;5078230;28;20047;-60
2024/01/07 08:16:24;;;;;;;0.70;0.70;;;;;;;0.59;100.00;99430.09;5078320;28;20052;-60
2024/01/07 08:18:51;;;;;;;0.80;0.80;;;;;;;0.53;100.00;99430.00;5079537;28;20040;-60
2024/01/07 08:21:18;;;;;;;0.80;0.80;;;;;;;0.53;100.00;99446.63;5072234;28;20135;-60
2024/01/07 08:23:45;;;;;;;0.70;0.70;;;;;;;0.40;100.00;99444.56;5076822;28;20048;-60
2024/01/07 08:26:13;;;;;;;0.70;0.70;;;;;;;0.42;100.00;99445.22;5055174;28;20133;-60
2024/01/07 08:28:41;;;;;;;0.63;0.63;;;;;;;0.45;100.00;99446.69;5076827;28;20118;-60
2024/01/07 08:31:08;;;;;;;0.70;0.70;;;;;;;0.44;100.00;99450.28;5079095;28;20072;-60
2024/01/07 08:33:35;;;;;;;0.80;0.80;;;;;;;0.68;100.00;99452.00;5073100;28;20055;-60
2024/01/07 08:36:02;;;;;;;0.93;0.93;;;;;;;0.51;100.00;99447.81;5075827;28;20056;-60
2024/01/07 08:38:29;;;;;;;0.80;0.80;;;;;;;0.61;100.00;99459.78;5054051;28;20044;-60
2024/01/07 08:40:56;;;;;;;0.70;0.70;;;;;;;0.57;100.00;99450.56;5077165;28;20055;-60
2024/01/07 08:43:24;;;;;;;0.70;0.70;;;;;;;0.65;100.00;99460.28;5076519;28;20050;-60
2024/01/07 08:45:51;;;;;;;0.80;0.80;;;;;;;0.58;100.00;99454.84;5049771;28;20048;-60
2024/01/07 08:48:18;;;;;;;0.68;0.68;;;;;;;0.71;100.00;99461.38;5079163;28;20051;-60
2024/01/07 08:50:46;;;;;;;0.60;0.60;;;;;;;0.72;100.00;99460.38;5075564;28;20139;-60
2024/01/07 08:53:14;;;;;;;0.77;0.77;;;;;;;0.78;100.00;99463.16;5076273;28;20552;-61
2024/01/07 08:55:41;;;;;;;0.70;0.70;;;;;;;0.58;100.00;99460.13;5078577;28;20167;-60
2024/01/07 08:58:08;;;;;;;0.75;0.75;;;;;;;0.45;100.00;99467.78;5076117;28;20438;-61
2024/01/07 09:00:36;;;;;;;0.85;0.85;;;;;;;0.53;100.00;99473.00;5076762;28;20089;-61
2024/01/07 09:03:04;;;;;;;0.80;0.80;;;;;;;0.50;100.00;99476.00;5082710;28;20054;-61
2024/01/07 09:05:31;;;;;;;0.55;0.55;;;;;;;0.51;100.00;99480.25;5079138;28;20558;-61
2024/01/07 09:07:58;;;;;;;0.80;0.80;;;;;;;0.51;100.00;99485.53;5081174;28;20581;-61
2024/01/07 09:10:26;;;;;;;0.70;0.70;;;;;;;0.54;100.00;99479.91;5077227;28;20151;-61
2024/01/07 09:12:53;;;;;;;0.77;0.77;;;;;;;0.55;100.00;99483.38;5080945;28;20135;-61
2024/01/07 09:15:20;;;;;;;0.90;0.90;;;;;;;0.61;100.00;99480.88;5072558;28;20036;-60
2024/01/07 09:17:49;;;;;;;0.98;0.98;;;;;;;0.61;100.00;99482.69;5077564;28;20044;-60
2024/01/07 09:20:16;;;;;;;0.80;0.80;;;;;;;0.63;100.00;99483.34;5060889;28;20059;-60
2024/01/07 09:22:43;;;;;;;0.77;0.77;;;;;;;0.60;100.00;99479.25;5074393;28;20281;-60
2024/01/07 09:25:10;;;;;;;0.70;0.70;;;;;;;0.59;100.00;99497.88;5079127;28;20498;-60
2024/01/07 09:27:38;;;;;;;0.77;0.77;;;;;;;0.75;100.00;99500.44;5076168;28;20110;-61
2024/01/07 09:30:06;;;;;;;0.73;0.73;;;;;;;0.71;100.00;99500.97;5079949;28;20106;-60
2024/01/07 09:32:34;;;;;;;0.63;0.63;;;;;;;0.78;100.00;99515.13;5079974;28;20051;-60
2024/01/07 09:35:04;;;;;;;0.60;0.60;;;;;;;0.89;100.00;99506.78;5081546;28;20751;-60
2024/01/07 09:37:31;;;;;;;0.85;0.85;;;;;;;0.73;100.00;99514.81;5082467;28;20048;-61
2024/01/07 09:40:01;;;;;;;0.70;0.70;;;;;;;0.77;100.00;99521.38;5080970;28;20086;-60
2024/01/07 09:42:28;;;;;;;0.70;0.70;;;;;;;0.79;100.00;99522.03;5068586;28;20490;-61
2024/01/07 09:44:56;;;;;;;0.70;0.70;;;;;;;0.80;100.00;99531.56;5076388;28;20098;-60
2024/01/07 09:47:24;;;;;;;0.88;0.88;;;;;;;0.87;100.00;99524.63;5077179;28;20044;-60
2024/01/07 09:49:51;;;;;;;0.77;0.77;;;;;;;0.88;100.00;99520.19;5073524;28;20044;-60
2024/01/07 09:52:20;;;;;;;0.73;0.73;;;;;;;0.86;100.00;99525.63;5078174;28;20493;-60
2024/01/07 09:54:48;;;;;;;0.80;0.80;;;;;;;0.83;100.00;99529.44;5074296;28;20123;-60
2024/01/07 09:57:15;;;;;;;0.80;0.80;;;;;;;0.79;100.00;99533.41;5061016;28;20783;-60
2024/01/07 09:59:43;;;;;;;0.70;0.70;;;;;;;0.72;100.00;99542.16;5078994;28;20713;-60
2024/01/07 10:02:10;;;;;;;0.80;0.80;;;;;;;0.58;100.00;99539.25;5076193;28;20152;-60
2024/01/07 10:04:37;;;;;;;0.63;0.63;;;;;;;0.78;100.00;99538.88;5072607;28;20052;-59
2024/01/07 10:07:05;;;;;;;0.70;0.70;;;;;;;0.81;100.00;99533.22;5071699;28;20040;-60
2024/01/07 10:09:34;;;;;;;0.75;0.75;;;;;;;0.85;100.00;99535.38;5077704;28;20040;-60
2024/01/07 10:12:02;;;;;;;0.80;0.80;;;;;;;0.80;100.00;99542.97;5079120;28;20072;-60
2024/01/07 10:14:30;;;;;;;0.80;0.80;;;;;;;0.79;100.00;99532.56;5057209;28;20631;-60
2024/01/07 10:16:59;;;;;;;0.60;0.60;;;;;;;0.83;100.00;99537.34;5072294;28;20050;-60
2024/01/07 10:19:26;;;;;;;0.80;0.80;;;;;;;0.79;100.00;99545.78;5058799;28;20072;-60
2024/01/07 10:22:00;;;;;;;0.60;0.60;;;;;;;0.78;100.00;99544.13;5074558;28;20040;-63
2024/01/07 10:24:27;;;;;;;0.80;0.80;;;;;;;0.81;100.00;99546.44;5064342;28;20047;-60
2024/01/07 10:26:56;;;;;;;0.77;0.77;;;;;;;0.68;100.00;99546.97;5072775;28;20037;-60
2024/01/07 10:29:24;;;;;;;0.80;0.80;;;;;;;0.66;100.00;99545.50;5045672;28;20077;-60
2024/01/07 10:31:51;;;;;;;0.90;0.90;;;;;;;0.78;100.00;99544.97;5068316;28;20040;-60
2024/01/07 10:34:18;;;;;;;0.90;0.90;;;;;;;0.63;100.00;99547.47;5070996;28;20829;-60
2024/01/07 10:36:46;;;;;;;0.70;0.70;;;;;;;0.60;100.00;99545.19;5067791;28;20044;-60
2024/01/07 10:39:16;;;;;;;0.82;0.82;;;;;;;0.59;100.00;99551.44;5052277;28;20127;-60
2024/01/07 10:41:43;;;;;;;0.80;0.80;;;;;;;0.67;100.00;99540.03;5067421;28;20524;-60
2024/01/07 10:44:11;;;;;;;0.70;0.70;;;;;;;0.71;100.00;99543.19;5053468;28;20125;-59
2024/01/07 10:46:39;;;;;;;0.88;0.88;;;;;;;0.75;100.00;99541.81;5069860;28;20255;-60
2024/01/07 10:49:08;;;;;;;0.60;0.60;;;;;;;0.80;100.00;99547.41;5071288;28;20149;-60
2024/01/07 10:51:36;;;;;;;0.70;0.70;;;;;;;0.76;100.00;99546.13;5065593;28;20076;-61
2024/01/07 10:54:03;;;;;;;0.80;0.80;;;;;;;0.84;100.00;99546.06;5067883;28;20311;-60
2024/01/07 10:56:46;;;;;;;0.77;0.77;;;;;;;0.91;100.00;99546.22;5065643;28;20751;-60
2024/01/07 10:59:14;;;;;;;1.00;1.00;;;;;;;0.87;100.00;99558.91;5070184;28;20037;-60
2024/01/07 11:01:43;;;;;;;0.77;0.77;;;;;;;0.96;100.00;99551.81;5056965;28;20055;-60
2024/01/07 11:04:22;;;;;;;0.70;0.70;;;;;;;0.99;100.00;99562.81;5057604;28;20092;-60
2024/01/07 11:06:52;;;;;;;0.60;0.60;;;;;;;1.08;100.00;99548.59;5055237;28;20043;-60
2024/01/07 11:09:21;;;;;;;0.70;0.70;;;;;;;1.16;100.00;99553.00;5075956;28;20756;-60
2024/01/07 11:11:48;;;;;;;0.90;0.90;;;;;;;1.06;100.00;99555.88;5076281;28;20052;-60
2024/01/07 11:14:37;;;;;;;0.60;0.60;;;;;;;1.08;100.00;99550.44;5072329;28;20040;-60
2024/01/07 11:17:04;;;;;;;0.80;0.80;;;;;;;1.04;100.00;99549.94;5069285;28;20086;-60
2024/01/07 11:19:31;;;;;;;0.60;0.60;;;;;;;1.05;100.00;99551.59;5057109;28;20079;-60
2024/01/07 11:22:27;;;;;;;0.70;0.70;;;;;;;1.05;100.00;99551.59;5078202;28;20402;-60
2024/01/07 11:24:55;;;;;;;0.65;0.65;;;;;;;1.07;100.00;99559.31;5073179;28;20094;-60
2024/01/07 11:27:23;;;;;;;0.70;0.70;;;;;;;1.12;100.00;99553.53;5059622;28;20055;-60
2024/01/07 11:29:58;;;;;;;0.80;0.80;;;;;;;1.16;100.00;99557.47;5071175;28;20123;-59
2024/01/07 11:32:26;;;;;;;0.70;0.70;;;;;;;1.05;100.00;99556.88;5056659;28;20054;-60
2024/01/07 11:34:56;;;;;;;0.68;0.68;;;;;;;1.13;100.00;99557.84;5075697;28;20389;-60
2024/01/07 11:37:23;;;;;;;0.80;0.80;;;;;;;1.11;100.00;99560.63;5077188;28;20353;-60